Time;durP1;ratioP1;P1;durP2;ratioP2;P2;SDS_P1;SDS_P2;PMS_P1;PMS_P2;Temp;Humidity;BMP_temperature;BMP_pressure;BME280_temperature;BME280_humidity;BME280_pressure;Samples;Min_cycle;Max_cycle;Signal;HPM_P1;HPM_P2
2024/01/09 00:02:48;;;;;;;6.57;3.83;;;-0.50;99.90;;;;;;10060475;28;20034;-74
2024/01/09 00:07:39;;;;;;;7.03;4.18;;;-0.60;99.90;;;;;;10055888;28;20083;-67
2024/01/09 00:12:30;;;;;;;7.63;4.00;;;-0.60;99.90;;;;;;10057569;28;20105;-66
2024/01/09 00:17:20;;;;;;;12.18;4.57;;;-0.60;99.90;;;;;;10057391;28;20506;-73
2024/01/09 00:22:11;;;;;;;9.73;4.50;;;-0.70;99.90;;;;;;10061322;28;20140;-75
2024/01/09 00:27:01;;;;;;;11.25;4.78;;;-0.60;99.90;;;;;;10077289;28;20054;-70
2024/01/09 00:31:52;;;;;;;8.60;4.63;;;-0.70;99.90;;;;;;10069760;28;20034;-68
2024/01/09 00:36:43;;;;;;;6.72;3.88;;;-0.80;99.90;;;;;;10063030;28;20091;-69
2024/01/09 00:41:34;;;;;;;9.18;4.07;;;-0.80;99.90;;;;;;10060975;28;20507;-78
2024/01/09 00:46:28;;;;;;;10.35;3.97;;;-0.80;99.90;;;;;;10062433;28;20083;-78
2024/01/09 00:51:18;;;;;;;9.63;4.00;;;-0.70;99.90;;;;;;10061820;28;20022;-77
2024/01/09 00:56:09;;;;;;;10.32;4.25;;;-0.80;99.90;;;;;;10061458;28;20026;-75
2024/01/09 01:01:00;;;;;;;9.55;4.90;;;-0.90;99.90;;;;;;10060616;28;20044;-73
2024/01/09 01:05:51;;;;;;;7.57;3.53;;;-1.00;99.90;;;;;;10058641;28;20453;-71
2024/01/09 01:10:41;;;;;;;8.18;3.75;;;-1.00;99.90;;;;;;10062858;28;20032;-73
2024/01/09 01:15:32;;;;;;;8.45;4.28;;;-1.00;99.90;;;;;;10060173;28;20128;-71
2024/01/09 01:20:23;;;;;;;8.00;4.55;;;-1.00;99.90;;;;;;10038890;28;20042;-70
2024/01/09 01:25:14;;;;;;;9.10;3.97;;;-0.90;99.90;;;;;;10020326;28;20558;-68
2024/01/09 01:30:05;;;;;;;7.95;3.70;;;-0.90;99.90;;;;;;10019773;28;20030;-71
2024/01/09 01:34:56;;;;;;;9.43;4.30;;;-1.00;99.90;;;;;;10015228;28;20117;-63
2024/01/09 01:39:47;;;;;;;9.70;4.32;;;-1.10;99.90;;;;;;10028497;28;20034;-64
2024/01/09 01:44:37;;;;;;;7.78;3.83;;;-1.10;99.90;;;;;;10020474;28;20065;-63
2024/01/09 01:49:28;;;;;;;8.43;4.47;;;-1.10;99.90;;;;;;10015785;28;20029;-65
2024/01/09 01:54:21;;;;;;;6.53;3.42;;;-1.10;99.90;;;;;;10019605;28;20083;-66
2024/01/09 01:59:16;;;;;;;10.73;3.92;;;-1.10;99.90;;;;;;10017808;28;20103;-69
2024/01/09 02:04:07;;;;;;;12.60;3.20;;;-1.10;99.90;;;;;;10018749;28;20439;-70
2024/01/09 02:08:58;;;;;;;9.68;4.85;;;-1.10;99.90;;;;;;10019117;28;20038;-66
2024/01/09 02:13:49;;;;;;;10.50;4.40;;;-1.30;99.90;;;;;;10018766;28;20046;-64
2024/01/09 02:18:40;;;;;;;7.63;4.63;;;-1.40;99.90;;;;;;10019504;28;20503;-68
2024/01/09 02:23:30;;;;;;;7.15;4.40;;;-1.40;99.90;;;;;;10058832;28;20045;-69
2024/01/09 02:28:36;;;;;;;10.85;4.72;;;-1.40;99.90;;;;;;10057719;28;20034;-63
2024/01/09 02:33:28;;;;;;;10.93;4.57;;;-1.30;99.90;;;;;;10057442;28;20046;-66
2024/01/09 02:38:20;;;;;;;8.85;4.00;;;-1.40;99.90;;;;;;10057283;28;20025;-64
2024/01/09 02:43:11;;;;;;;8.57;4.32;;;-1.40;99.90;;;;;;10056633;28;20482;-68
2024/01/09 02:48:02;;;;;;;9.85;3.97;;;-1.40;99.90;;;;;;10056966;28;20039;-69
2024/01/09 02:52:52;;;;;;;10.93;4.28;;;-1.50;99.90;;;;;;10057110;28;20033;-69
2024/01/09 02:57:43;;;;;;;11.27;4.28;;;-1.50;99.90;;;;;;10056966;28;20055;-74
2024/01/09 03:02:34;;;;;;;10.80;4.38;;;-1.50;99.90;;;;;;10057591;28;20104;-70
2024/01/09 03:07:25;;;;;;;10.25;4.57;;;-1.50;99.90;;;;;;10056558;28;20509;-70
2024/01/09 03:12:15;;;;;;;9.63;3.97;;;-1.50;99.90;;;;;;10058658;28;20029;-70
2024/01/09 03:17:06;;;;;;;8.63;3.28;;;-1.50;99.90;;;;;;10056398;28;20026;-68
2024/01/09 03:21:57;;;;;;;10.30;4.22;;;-1.50;99.90;;;;;;10056369;28;20538;-66
2024/01/09 03:26:47;;;;;;;8.80;3.83;;;-1.50;99.90;;;;;;10057162;28;20204;-66
2024/01/09 03:31:38;;;;;;;11.70;5.03;;;-1.50;99.90;;;;;;10056242;28;20068;-68
2024/01/09 03:36:30;;;;;;;8.02;4.38;;;-1.50;99.90;;;;;;10056088;28;20059;-65
2024/01/09 03:41:22;;;;;;;13.82;5.07;;;-1.60;99.90;;;;;;10056339;28;20029;-70
2024/01/09 03:46:12;;;;;;;10.02;4.00;;;-1.60;99.90;;;;;;10056776;28;20064;-64
2024/01/09 03:51:03;;;;;;;12.27;4.47;;;-1.70;99.90;;;;;;10048910;28;20084;-67
2024/01/09 03:55:54;;;;;;;9.98;4.90;;;-1.70;99.90;;;;;;10056400;28;20029;-68
2024/01/09 04:00:44;;;;;;;9.60;5.18;;;-1.70;99.90;;;;;;10062943;28;20040;-64
2024/01/09 04:05:35;;;;;;;10.20;4.32;;;-1.80;99.90;;;;;;10062790;28;20037;-64
2024/01/09 04:10:26;;;;;;;14.13;4.70;;;-1.70;99.90;;;;;;10065512;28;20104;-68
2024/01/09 04:15:17;;;;;;;13.15;5.00;;;-1.60;99.90;;;;;;10068147;28;20075;-67
2024/01/09 04:20:11;;;;;;;9.00;5.15;;;-1.70;99.90;;;;;;10063434;28;20041;-66
2024/01/09 04:25:02;;;;;;;7.57;4.30;;;-1.70;99.90;;;;;;10068011;28;20815;-68
2024/01/09 04:29:53;;;;;;;9.20;4.60;;;-1.80;99.90;;;;;;10062930;28;20527;-66
2024/01/09 04:34:43;;;;;;;12.32;5.07;;;-1.90;99.90;;;;;;10063736;28;20045;-64
2024/01/09 04:39:34;;;;;;;10.98;4.88;;;-1.80;99.90;;;;;;10066693;28;20029;-67
2024/01/09 04:44:24;;;;;;;11.18;4.95;;;-1.80;99.90;;;;;;10062542;28;20029;-69
2024/01/09 04:49:15;;;;;;;8.90;4.80;;;-1.90;99.90;;;;;;10061512;28;20028;-66
2024/01/09 04:54:06;;;;;;;11.52;4.93;;;-1.80;99.90;;;;;;10063780;28;20049;-65
2024/01/09 04:58:56;;;;;;;10.77;4.90;;;-1.70;99.90;;;;;;10061482;28;20014;-63
2024/01/09 05:03:48;;;;;;;9.55;4.85;;;-1.80;99.90;;;;;;10061775;28;20037;-62
2024/01/09 05:08:38;;;;;;;13.25;5.65;;;-1.80;99.90;;;;;;10092210;28;20443;-63
2024/01/09 05:13:31;;;;;;;8.43;4.35;;;-1.90;99.90;;;;;;10067778;28;20068;-63
2024/01/09 05:18:21;;;;;;;11.05;5.22;;;-2.00;99.90;;;;;;10059443;28;20029;-66
2024/01/09 05:23:12;;;;;;;11.10;4.65;;;-1.90;99.90;;;;;;10065281;28;20548;-64
2024/01/09 05:28:03;;;;;;;9.30;4.40;;;-1.90;99.90;;;;;;10061029;28;20037;-68
2024/01/09 05:32:54;;;;;;;10.63;4.82;;;-2.00;99.90;;;;;;10060514;28;20095;-62
2024/01/09 05:37:44;;;;;;;10.57;4.25;;;-2.00;99.90;;;;;;10059958;28;20038;-65
2024/01/09 05:42:35;;;;;;;10.88;4.35;;;-1.90;99.90;;;;;;10059716;28;20037;-66
2024/01/09 05:47:26;;;;;;;8.93;4.50;;;-2.00;99.90;;;;;;10059395;28;20032;-69
2024/01/09 05:52:17;;;;;;;12.27;5.03;;;-2.10;99.90;;;;;;10059557;28;20045;-69
2024/01/09 05:57:08;;;;;;;11.65;4.45;;;-2.00;99.90;;;;;;10059078;28;20030;-71
2024/01/09 06:01:58;;;;;;;6.63;4.10;;;-2.00;99.90;;;;;;10061458;28;20037;-65
2024/01/09 06:06:49;;;;;;;8.15;4.38;;;-2.10;99.90;;;;;;10062286;28;20060;-70
2024/01/09 06:11:39;;;;;;;12.23;5.07;;;-2.10;99.90;;;;;;10063178;28;20037;-65
2024/01/09 06:16:30;;;;;;;9.95;4.47;;;-2.00;99.90;;;;;;10058266;28;20052;-66
2024/01/09 06:21:21;;;;;;;13.30;4.60;;;-2.10;99.90;;;;;;10057342;28;20060;-72
2024/01/09 06:26:13;;;;;;;10.50;4.40;;;-2.00;99.90;;;;;;10058019;28;20033;-67
2024/01/09 06:31:04;;;;;;;7.90;4.82;;;-2.00;99.90;;;;;;10057521;28;20099;-70
2024/01/09 06:35:55;;;;;;;9.27;4.20;;;-2.00;99.90;;;;;;10057734;28;20503;-69
2024/01/09 06:40:45;;;;;;;10.55;4.28;;;-2.00;99.90;;;;;;10056834;28;20041;-73
2024/01/09 06:45:36;;;;;;;13.90;5.28;;;-2.00;99.90;;;;;;10053643;28;20025;-70
2024/01/09 06:50:27;;;;;;;7.60;3.70;;;-2.00;99.90;;;;;;10047428;28;20033;-66
2024/01/09 06:55:18;;;;;;;10.20;4.53;;;-2.00;99.90;;;;;;10055729;28;20511;-68
2024/01/09 07:00:09;;;;;;;9.93;4.50;;;-2.10;99.90;;;;;;10053622;28;20037;-72
2024/01/09 07:04:59;;;;;;;9.65;5.10;;;-2.10;99.90;;;;;;10054044;28;20810;-63
2024/01/09 07:09:50;;;;;;;9.45;4.10;;;-2.10;99.90;;;;;;10056281;28;20160;-70
2024/01/09 07:14:41;;;;;;;13.77;5.05;;;-2.10;99.90;;;;;;10058721;28;20041;-70
2024/01/09 07:19:31;;;;;;;13.52;5.68;;;-2.00;99.90;;;;;;10060142;28;20045;-75
2024/01/09 07:24:22;;;;;;;11.50;4.30;;;-2.00;99.90;;;;;;10055973;28;20033;-79
2024/01/09 07:29:16;;;;;;;11.25;3.90;;;-2.00;99.90;;;;;;10056506;28;20443;-70
2024/01/09 07:34:07;;;;;;;7.70;3.95;;;-2.10;99.90;;;;;;10063664;28;20052;-75
2024/01/09 07:38:57;;;;;;;9.20;4.53;;;-2.10;99.90;;;;;;10063887;28;20029;-73
2024/01/09 07:43:48;;;;;;;11.20;5.43;;;-2.10;99.90;;;;;;10063544;28;20040;-69
2024/01/09 07:48:39;;;;;;;9.52;4.50;;;-2.10;99.90;;;;;;10062876;28;20064;-74
2024/01/09 07:53:29;;;;;;;10.45;4.80;;;-2.00;99.90;;;;;;10062813;28;20041;-71
2024/01/09 07:58:20;;;;;;;9.40;5.10;;;-2.00;99.90;;;;;;10059405;28;20439;-73
2024/01/09 08:03:11;;;;;;;7.07;4.47;;;-2.00;99.90;;;;;;10062603;28;20036;-66
2024/01/09 08:08:01;;;;;;;9.20;5.13;;;-2.10;99.90;;;;;;10062218;28;20052;-72
2024/01/09 08:12:52;;;;;;;11.73;4.43;;;-2.00;99.90;;;;;;10069140;28;20039;-65
2024/01/09 08:17:43;;;;;;;11.50;4.65;;;-1.90;99.90;;;;;;10061048;28;20041;-63
2024/01/09 08:22:33;;;;;;;11.98;4.00;;;-1.90;99.90;;;;;;10061956;28;20473;-66
2024/01/09 08:27:24;;;;;;;11.07;5.57;;;-1.90;99.90;;;;;;10061803;28;20040;-63
2024/01/09 08:32:17;;;;;;;8.82;4.15;;;-1.90;99.90;;;;;;10061911;28;20080;-65
2024/01/09 08:37:07;;;;;;;8.45;4.68;;;-1.90;99.90;;;;;;10061682;28;20029;-71
2024/01/09 08:41:58;;;;;;;6.75;4.22;;;-1.80;99.90;;;;;;10061020;28;20471;-66
2024/01/09 08:46:49;;;;;;;10.57;4.45;;;-1.80;99.90;;;;;;10061954;28;20682;-72
2024/01/09 08:51:39;;;;;;;11.40;4.80;;;-1.90;99.90;;;;;;10061861;28;20314;-72
2024/01/09 08:56:30;;;;;;;9.50;5.50;;;-1.80;99.90;;;;;;10061682;28;20045;-70
2024/01/09 09:01:21;;;;;;;10.27;4.85;;;-1.80;99.90;;;;;;10061050;28;20100;-67
2024/01/09 09:06:12;;;;;;;9.10;5.15;;;-1.80;99.90;;;;;;10060670;28;20025;-72
2024/01/09 09:11:03;;;;;;;7.43;4.47;;;-1.90;99.90;;;;;;10066265;28;20037;-71
2024/01/09 09:15:54;;;;;;;11.45;4.72;;;-1.90;99.90;;;;;;10059966;28;20057;-72
2024/01/09 09:20:44;;;;;;;9.07;4.65;;;-1.90;99.90;;;;;;10060386;28;20539;-76
2024/01/09 09:25:35;;;;;;;8.40;4.70;;;-2.00;99.90;;;;;;10060079;28;20095;-75
2024/01/09 09:30:26;;;;;;;10.50;4.78;;;-2.00;99.90;;;;;;10059962;28;20049;-70
2024/01/09 09:35:17;;;;;;;12.65;4.38;;;-2.00;99.90;;;;;;10056938;28;20136;-76
2024/01/09 09:40:09;;;;;;;6.85;3.88;;;-2.00;99.90;;;;;;10058518;28;20120;-69
2024/01/09 09:45:01;;;;;;;10.10;4.97;;;-2.00;99.90;;;;;;10057414;28;20055;-66
2024/01/09 09:49:53;;;;;;;9.77;3.85;;;-2.00;99.90;;;;;;10057032;28;20478;-68
2024/01/09 09:54:44;;;;;;;11.30;4.50;;;-1.80;99.90;;;;;;10057884;28;20037;-73
2024/01/09 09:59:35;;;;;;;11.07;4.90;;;-1.80;99.90;;;;;;10059737;28;20056;-79
2024/01/09 10:04:43;;;;;;;13.27;5.15;;;-1.70;99.90;;;;;;10059879;28;20040;-73
2024/01/09 10:09:37;;;;;;;11.10;4.20;;;-1.70;99.90;;;;;;10061107;28;21458;-67
2024/01/09 10:14:28;;;;;;;8.88;4.75;;;-1.60;99.90;;;;;;10062423;28;20043;-70
2024/01/09 10:19:19;;;;;;;11.75;4.85;;;-1.60;99.90;;;;;;10057803;28;20141;-65
2024/01/09 10:24:09;;;;;;;10.23;4.38;;;-1.60;99.90;;;;;;10059415;28;20518;-74
2024/01/09 10:29:01;;;;;;;8.70;4.30;;;-1.70;99.90;;;;;;10057044;28;20087;-71
2024/01/09 10:33:57;;;;;;;10.40;3.92;;;-1.70;99.90;;;;;;10058987;28;20131;-78
2024/01/09 10:38:48;;;;;;;;;;;-1.60;99.90;;;;;;10059114;28;20027;-74
2024/01/09 10:43:39;;;;;;;6.45;2.95;;;-1.50;99.90;;;;;;10058253;28;20438;-77
2024/01/09 10:48:30;;;;;;;8.18;4.07;;;-1.50;99.90;;;;;;10056004;28;20033;-71
2024/01/09 10:53:24;;;;;;;9.65;4.40;;;-1.50;99.90;;;;;;10055029;28;20038;-74
2024/01/09 10:58:17;;;;;;;12.48;4.47;;;-1.50;99.90;;;;;;10048685;28;20055;-68
2024/01/09 11:03:08;;;;;;;9.95;4.20;;;-1.40;99.90;;;;;;10054489;28;20056;-76
2024/01/09 11:07:59;;;;;;;13.50;4.93;;;-1.30;99.90;;;;;;10055897;28;20020;-71
2024/01/09 11:12:53;;;;;;;10.95;4.38;;;-1.30;99.90;;;;;;10065429;28;20029;-74
2024/01/09 11:17:49;;;;;;;10.32;4.65;;;-1.30;99.90;;;;;;10056708;28;20033;-65
2024/01/09 11:22:40;;;;;;;8.48;4.18;;;-1.20;99.90;;;;;;10057536;28;20647;-70
2024/01/09 11:27:43;;;;;;;7.93;4.75;;;-1.30;99.90;;;;;;10054403;28;20030;-64
2024/01/09 11:32:34;;;;;;;7.25;4.15;;;-1.30;99.90;;;;;;10049252;28;20060;-62
2024/01/09 11:37:24;;;;;;;10.30;4.18;;;-1.30;99.90;;;;;;10055729;28;20140;-63
2024/01/09 11:42:15;;;;;;;11.27;5.10;;;-1.20;99.90;;;;;;10054478;28;20108;-63
2024/01/09 11:47:06;;;;;;;9.30;4.53;;;-1.20;99.90;;;;;;10054774;28;20025;-64
2024/01/09 11:51:57;;;;;;;13.65;4.82;;;-1.30;99.90;;;;;;10055506;28;20041;-63
2024/01/09 11:56:51;;;;;;;7.85;3.65;;;-1.20;99.90;;;;;;10056415;28;20044;-65
2024/01/09 12:01:42;;;;;;;11.15;4.30;;;-1.10;99.90;;;;;;10053395;28;20427;-63
2024/01/09 12:06:33;;;;;;;8.70;4.38;;;-1.10;99.90;;;;;;10056236;28;20033;-67
2024/01/09 12:11:24;;;;;;;9.27;4.20;;;-1.10;99.90;;;;;;10055752;28;20396;-65
2024/01/09 12:16:24;;;;;;;11.68;4.65;;;-1.00;99.90;;;;;;10051326;28;20045;-67
2024/01/09 12:21:16;;;;;;;9.73;4.20;;;-1.00;99.90;;;;;;10067153;28;20072;-65
2024/01/09 12:26:06;;;;;;;8.55;4.38;;;-1.00;99.90;;;;;;10064313;28;20345;-65
2024/01/09 12:31:01;;;;;;;10.35;3.47;;;-0.90;99.90;;;;;;10061431;28;20556;-65
2024/01/09 12:35:52;;;;;;;9.70;4.95;;;-0.90;99.90;;;;;;10062367;28;20033;-65
2024/01/09 12:40:44;;;;;;;6.60;4.13;;;-0.80;99.90;;;;;;10062330;28;20067;-66
2024/01/09 12:45:35;;;;;;;9.45;4.47;;;-0.70;99.90;;;;;;10064539;28;20122;-73
2024/01/09 12:50:28;;;;;;;7.28;3.80;;;-0.80;99.90;;;;;;10060491;28;20620;-69
2024/01/09 12:55:19;;;;;;;10.80;3.85;;;-0.80;99.90;;;;;;10063024;28;20069;-66
2024/01/09 13:00:10;;;;;;;10.30;5.10;;;-0.80;99.90;;;;;;10061670;28;20398;-72
2024/01/09 13:05:01;;;;;;;10.32;4.32;;;-0.70;99.90;;;;;;10060713;28;20118;-66
2024/01/09 13:09:52;;;;;;;11.43;4.63;;;-0.60;99.90;;;;;;10067647;28;20083;-67
2024/01/09 13:14:43;;;;;;;11.77;4.47;;;-0.60;99.90;;;;;;10062566;28;20034;-74
2024/01/09 13:19:33;;;;;;;8.13;4.10;;;-0.60;99.90;;;;;;10060222;28;20596;-69
2024/01/09 13:24:24;;;;;;;13.48;4.93;;;-0.60;99.90;;;;;;10062740;28;20033;-70
2024/01/09 13:29:14;;;;;;;10.88;4.25;;;-0.60;99.90;;;;;;10059656;28;20406;-66
2024/01/09 13:34:05;;;;;;;10.02;4.30;;;-0.50;99.90;;;;;;10059920;28;20041;-65
2024/01/09 13:38:56;;;;;;;9.70;4.82;;;-0.50;99.90;;;;;;10067899;28;20099;-67
2024/01/09 13:43:48;;;;;;;10.15;4.40;;;-0.50;99.90;;;;;;10058602;28;20116;-69
2024/01/09 13:48:42;;;;;;;6.97;4.72;;;-0.50;99.90;;;;;;10059121;28;20029;-68
2024/01/09 13:53:33;;;;;;;9.77;4.68;;;-0.40;99.90;;;;;;10065778;28;20570;-66
2024/01/09 13:58:23;;;;;;;14.50;4.55;;;-0.40;99.90;;;;;;10061061;28;20108;-69
2024/01/09 14:03:15;;;;;;;9.32;4.28;;;-0.40;99.90;;;;;;10060197;28;20502;-70
2024/01/09 14:08:05;;;;;;;11.75;4.35;;;-0.40;99.90;;;;;;10060582;28;20025;-65
2024/01/09 14:12:56;;;;;;;6.32;3.70;;;-0.30;99.90;;;;;;10059955;28;20041;-64
2024/01/09 14:17:47;;;;;;;7.45;3.80;;;-0.30;99.90;;;;;;10058053;28;20044;-64
2024/01/09 14:22:39;;;;;;;7.90;4.22;;;-0.30;99.90;;;;;;10058135;28;20325;-65
2024/01/09 14:27:29;;;;;;;13.52;5.25;;;-0.30;99.90;;;;;;10057869;28;20399;-63
2024/01/09 14:32:20;;;;;;;10.98;4.85;;;-0.20;99.90;;;;;;10057933;28;20021;-64
2024/01/09 14:37:13;;;;;;;9.32;4.45;;;-0.20;99.90;;;;;;10057582;28;20157;-65
2024/01/09 14:42:04;;;;;;;9.07;4.43;;;-0.20;99.90;;;;;;10057306;28;20033;-63
2024/01/09 14:47:00;;;;;;;9.07;4.10;;;-0.20;99.90;;;;;;10065575;28;20391;-64
2024/01/09 14:51:51;;;;;;;;;;;-0.20;99.90;;;;;;10059188;28;20047;-65
2024/01/09 14:56:42;;;;;;;6.38;3.58;;;-0.20;99.90;;;;;;10056373;28;19921;-63
2024/01/09 15:01:33;;;;;;;9.15;4.55;;;-0.10;99.90;;;;;;10056485;28;20033;-66
2024/01/09 15:06:23;;;;;;;8.55;4.28;;;-0.30;99.90;;;;;;10054389;28;20121;-64
2024/01/09 15:11:15;;;;;;;8.63;4.10;;;-0.30;99.90;;;;;;10056336;28;20506;-63
2024/01/09 15:16:05;;;;;;;7.63;4.10;;;-0.30;99.90;;;;;;10053018;28;20096;-63
2024/01/09 15:20:56;;;;;;;14.05;4.57;;;-0.30;99.90;;;;;;10056128;28;20439;-63
2024/01/09 15:25:47;;;;;;;8.98;4.00;;;-0.20;99.90;;;;;;10056255;28;20502;-63
2024/01/09 15:30:37;;;;;;;8.98;3.92;;;-0.30;99.90;;;;;;10054606;28;20080;-64
2024/01/09 15:35:28;;;;;;;11.10;4.70;;;-0.30;99.90;;;;;;10056547;28;20118;-64
2024/01/09 15:40:19;;;;;;;8.93;4.32;;;-0.20;99.90;;;;;;10056745;28;20029;-64
2024/01/09 15:45:12;;;;;;;6.88;4.65;;;-0.30;99.90;;;;;;10055735;28;20041;-63
2024/01/09 15:50:03;;;;;;;10.45;4.13;;;-0.30;99.90;;;;;;10055719;28;20041;-70
2024/01/09 15:54:54;;;;;;;19.27;5.07;;;-0.20;99.90;;;;;;10067310;28;20037;-70
2024/01/09 15:59:44;;;;;;;10.30;4.53;;;-0.20;99.90;;;;;;10063312;28;20127;-65
2024/01/09 16:04:38;;;;;;;7.95;3.78;;;-0.20;99.90;;;;;;10063754;28;20672;-66
2024/01/09 16:09:29;;;;;;;7.10;3.42;;;-0.20;99.90;;;;;;10063243;28;20025;-66
2024/01/09 16:14:20;;;;;;;9.88;5.10;;;-0.20;99.90;;;;;;10067610;28;20046;-71
2024/01/09 16:19:10;;;;;;;10.23;3.70;;;-0.20;99.90;;;;;;10058021;28;21584;-76
2024/01/09 16:24:01;;;;;;;7.15;4.10;;;-0.20;99.90;;;;;;10057906;28;20167;-72
2024/01/09 16:28:52;;;;;;;6.95;3.92;;;-0.20;99.90;;;;;;10060282;28;20033;-74
2024/01/09 16:33:43;;;;;;;11.18;4.65;;;-0.10;99.90;;;;;;10060004;28;20049;-73
2024/01/09 16:38:34;;;;;;;7.68;4.03;;;-0.10;99.90;;;;;;10058696;28;20052;-77
2024/01/09 16:43:25;;;;;;;11.40;5.10;;;-0.10;99.90;;;;;;10061909;28;20513;-71
2024/01/09 16:48:17;;;;;;;9.25;4.32;;;-0.10;99.90;;;;;;10062043;28;20034;-76
2024/01/09 16:53:07;;;;;;;10.48;4.68;;;-0.10;99.90;;;;;;10061536;28;20045;-69
2024/01/09 16:58:02;;;;;;;10.07;5.35;;;0.00;99.90;;;;;;10061291;28;20026;-77
2024/01/09 17:02:53;;;;;;;8.25;4.30;;;0.00;99.90;;;;;;10052966;28;20033;-70
2024/01/09 17:07:43;;;;;;;11.68;4.35;;;0.00;99.90;;;;;;10060694;28;20052;-70
2024/01/09 17:12:34;;;;;;;11.55;4.78;;;0.00;99.90;;;;;;10061813;28;20474;-72
2024/01/09 17:17:25;;;;;;;10.90;4.60;;;0.00;99.90;;;;;;10059767;28;20037;-65
2024/01/09 17:22:15;;;;;;;12.60;4.68;;;0.00;99.90;;;;;;10061015;28;20567;-64
2024/01/09 17:27:06;;;;;;;7.32;3.65;;;0.00;99.90;;;;;;10060012;28;20116;-66
2024/01/09 17:31:57;;;;;;;9.27;3.92;;;0.00;99.90;;;;;;10058659;28;20076;-64
2024/01/09 17:36:47;;;;;;;11.73;4.70;;;0.10;99.90;;;;;;10056682;28;20060;-69
2024/01/09 17:41:38;;;;;;;14.93;4.68;;;0.00;99.90;;;;;;10052653;28;20128;-66
2024/01/09 17:46:29;;;;;;;10.38;4.95;;;0.10;99.90;;;;;;10055833;28;20033;-62
2024/01/09 17:51:20;;;;;;;11.00;4.93;;;0.10;99.90;;;;;;10057812;28;20040;-62
2024/01/09 17:56:10;;;;;;;9.52;5.03;;;0.10;99.90;;;;;;10059903;28;20144;-73
2024/01/09 18:01:01;;;;;;;13.18;5.55;;;0.10;99.90;;;;;;10060866;28;20056;-67
2024/01/09 18:05:52;;;;;;;10.93;4.63;;;0.10;99.90;;;;;;10059606;28;20033;-64
2024/01/09 18:10:43;;;;;;;8.00;4.40;;;0.10;99.90;;;;;;10058726;28;20113;-64
2024/01/09 18:15:34;;;;;;;8.35;3.97;;;0.10;99.90;;;;;;10058004;28;20046;-63
2024/01/09 18:20:27;;;;;;;9.50;4.68;;;0.10;99.90;;;;;;10058402;28;20463;-68
2024/01/09 18:25:17;;;;;;;8.98;4.20;;;0.10;99.90;;;;;;10058838;28;20035;-64
2024/01/09 18:30:08;;;;;;;13.80;4.72;;;0.10;99.90;;;;;;10059495;28;20037;-72
2024/01/09 18:34:59;;;;;;;9.18;4.80;;;0.10;99.90;;;;;;10045754;28;20044;-72
2024/01/09 18:39:49;;;;;;;13.23;4.93;;;0.10;99.90;;;;;;10057090;28;20033;-67
2024/01/09 18:44:41;;;;;;;8.40;3.95;;;0.10;99.90;;;;;;10062734;28;20025;-65
2024/01/09 18:49:33;;;;;;;11.00;4.78;;;0.10;99.90;;;;;;10056593;28;20402;-65
2024/01/09 18:54:24;;;;;;;8.27;4.60;;;0.10;99.90;;;;;;10056418;28;20033;-68
2024/01/09 18:59:16;;;;;;;7.95;3.88;;;0.10;99.90;;;;;;10058692;28;21393;-64
2024/01/09 19:04:06;;;;;;;6.05;3.80;;;0.10;99.90;;;;;;10057314;28;20048;-70
2024/01/09 19:08:57;;;;;;;12.38;4.63;;;0.10;99.90;;;;;;10055204;28;20028;-63
2024/01/09 19:13:48;;;;;;;19.42;4.20;;;0.10;99.90;;;;;;10055625;28;20049;-67
2024/01/09 19:18:38;;;;;;;9.43;4.15;;;0.10;99.90;;;;;;10056486;28;20084;-65
2024/01/09 19:23:29;;;;;;;7.32;3.72;;;0.10;99.90;;;;;;10057748;28;20056;-65
2024/01/09 19:28:20;;;;;;;12.43;4.65;;;0.10;99.90;;;;;;10065613;28;20029;-63
2024/01/09 19:33:11;;;;;;;11.05;4.28;;;0.10;99.90;;;;;;10068756;28;20827;-65
2024/01/09 19:38:02;;;;;;;6.03;3.22;;;0.10;99.90;;;;;;10070457;28;20592;-65
2024/01/09 19:42:52;;;;;;;9.35;3.92;;;0.10;99.90;;;;;;10067888;28;20037;-63
2024/01/09 19:47:45;;;;;;;7.22;3.83;;;0.10;99.90;;;;;;10067811;28;20021;-66
2024/01/09 19:52:36;;;;;;;11.30;4.80;;;0.10;99.90;;;;;;10068944;28;20483;-67
2024/01/09 19:57:28;;;;;;;10.95;4.60;;;0.10;99.90;;;;;;10067170;28;20041;-69
2024/01/09 20:02:19;;;;;;;14.60;5.35;;;0.10;99.90;;;;;;10068697;28;20029;-70
2024/01/09 20:07:09;;;;;;;14.20;5.40;;;0.10;99.90;;;;;;10071183;28;20029;-72
2024/01/09 20:12:02;;;;;;;10.70;5.20;;;0.10;99.90;;;;;;10080172;28;20087;-65
2024/01/09 20:16:53;;;;;;;14.57;5.93;;;0.10;99.90;;;;;;10069115;28;20060;-67
2024/01/09 20:21:45;;;;;;;12.85;6.43;;;0.10;99.90;;;;;;10068875;28;20648;-70
2024/01/09 20:26:36;;;;;;;11.77;5.10;;;0.10;99.90;;;;;;10066808;28;20076;-64
2024/01/09 20:31:28;;;;;;;13.48;5.60;;;0.10;99.90;;;;;;10068687;28;20021;-67
2024/01/09 20:36:19;;;;;;;12.27;5.57;;;0.00;99.90;;;;;;10067371;28;20076;-68
2024/01/09 20:41:10;;;;;;;17.13;6.10;;;0.10;99.90;;;;;;10058135;28;20022;-67
2024/01/09 20:46:01;;;;;;;10.60;5.90;;;0.00;99.90;;;;;;10061122;28;20033;-65
2024/01/09 20:50:52;;;;;;;10.05;4.90;;;0.00;99.90;;;;;;10061297;28;20040;-68
2024/01/09 20:55:43;;;;;;;12.88;5.43;;;0.10;99.90;;;;;;10061716;28;20038;-64
2024/01/09 21:00:34;;;;;;;10.45;5.50;;;0.10;99.90;;;;;;10064649;28;20115;-66
2024/01/09 21:05:24;;;;;;;12.60;5.20;;;0.10;99.90;;;;;;10065506;28;20037;-68
2024/01/09 21:10:15;;;;;;;14.45;5.90;;;0.10;99.90;;;;;;10060947;28;20033;-76
2024/01/09 21:15:08;;;;;;;9.73;4.70;;;0.10;99.90;;;;;;10069521;28;20061;-69
2024/01/09 21:19:58;;;;;;;12.35;4.85;;;0.00;99.90;;;;;;10045838;28;20423;-69
2024/01/09 21:24:49;;;;;;;10.10;5.00;;;0.00;99.90;;;;;;10049659;28;20037;-67
2024/01/09 21:29:40;;;;;;;10.50;4.43;;;0.00;99.90;;;;;;10050438;28;20037;-67
2024/01/09 21:34:30;;;;;;;13.43;4.88;;;0.00;99.90;;;;;;10048658;28;20037;-68
2024/01/09 21:39:21;;;;;;;12.30;5.38;;;0.00;99.90;;;;;;10046428;28;20065;-73
2024/01/09 21:44:12;;;;;;;8.43;4.20;;;0.00;99.90;;;;;;10051622;28;20114;-72
2024/01/09 21:49:02;;;;;;;11.43;4.68;;;0.00;99.90;;;;;;10047966;28;20380;-68
2024/01/09 21:53:53;;;;;;;9.73;4.68;;;0.00;99.90;;;;;;10041271;28;20045;-73
2024/01/09 21:58:44;;;;;;;15.77;5.30;;;0.10;99.90;;;;;;10049294;28;20537;-65
2024/01/09 22:03:34;;;;;;;12.25;5.50;;;0.00;99.90;;;;;;10049065;28;20527;-65
2024/01/09 22:08:25;;;;;;;9.70;4.68;;;0.00;99.90;;;;;;10046173;28;20602;-66
2024/01/09 22:13:16;;;;;;;9.60;4.57;;;0.00;99.90;;;;;;10044412;28;20088;-67
2024/01/09 22:18:06;;;;;;;12.23;5.50;;;0.00;99.90;;;;;;10045970;28;20021;-77
2024/01/09 22:22:57;;;;;;;11.50;5.15;;;0.00;99.90;;;;;;10046344;28;20051;-73
2024/01/09 22:27:48;;;;;;;10.23;4.82;;;0.00;99.90;;;;;;10047848;28;20100;-77
2024/01/09 22:32:39;;;;;;;12.20;4.53;;;0.00;99.90;;;;;;10047731;28;20041;-73
2024/01/09 22:37:29;;;;;;;7.93;3.60;;;-0.10;99.90;;;;;;10060157;28;20070;-77
2024/01/09 22:42:20;;;;;;;12.70;4.57;;;0.00;99.90;;;;;;10056914;28;20030;-78
2024/01/09 22:47:10;;;;;;;11.32;4.72;;;0.00;99.90;;;;;;10057038;28;20018;-64
2024/01/09 22:52:01;;;;;;;7.63;4.70;;;0.10;99.90;;;;;;10045436;28;20133;-66
2024/01/09 22:56:52;;;;;;;9.70;4.53;;;0.00;99.90;;;;;;10051551;28;20037;-63
2024/01/09 23:01:48;;;;;;;9.98;4.22;;;0.10;99.90;;;;;;10058126;28;20029;-65
2024/01/09 23:06:39;;;;;;;12.80;4.45;;;0.10;99.90;;;;;;10058462;28;20163;-67
2024/01/09 23:11:30;;;;;;;13.70;5.68;;;0.10;99.90;;;;;;10057425;28;20545;-62
2024/01/09 23:16:21;;;;;;;9.63;4.30;;;0.10;99.90;;;;;;10056083;28;20398;-63
2024/01/09 23:21:13;;;;;;;10.65;5.03;;;0.10;99.90;;;;;;10056687;28;20037;-63
2024/01/09 23:26:03;;;;;;;8.65;4.43;;;0.00;99.90;;;;;;10056939;28;20491;-63
2024/01/09 23:30:54;;;;;;;12.98;4.53;;;0.00;99.90;;;;;;10057170;28;20030;-63
2024/01/09 23:35:45;;;;;;;8.15;4.22;;;0.10;99.90;;;;;;10056782;28;20107;-64
2024/01/09 23:40:39;;;;;;;12.50;4.28;;;0.00;99.90;;;;;;10063898;28;20036;-65
2024/01/09 23:45:30;;;;;;;10.77;4.78;;;0.10;99.90;;;;;;10059126;28;20036;-67
2024/01/09 23:50:20;;;;;;;14.55;5.90;;;0.10;99.90;;;;;;10057787;28;20037;-71
2024/01/09 23:55:11;;;;;;;11.38;4.63;;;0.10;99.90;;;;;;10059492;28;20029;-69
